Black River, Minnesota
Current Conditions -  °F | °C
As of 8:55 PM on Sunday 23 Nov 2014 (Local Time) from KINL Reporting Station
Light Rain Light Rain  
Wind Chill: 29°   Ceiling: 400
Heat Index: 34°   Visibility: 3mi
Dew Point: 32°   Wind: 6mph
Humidity: 92%   Direction: 340°NNW
Pressure: 29.38"   Gusts: NA
Location:  48.5075°N, 93.9033°W
Report Text: KINL 240255Z AUTO 34005KT 3SM -RA BR OVC004 01/00 A2938 RMK AO2 RAE15B27 SLP961 P0000 60000 T00110000 58001 $
Loading
Personal Weather Stations






























Interactive Weather Map New forecast layout! Learn more

10-Day Weather Forecast

Advertisements
Track Severe Weather on mobile